Time,TemperatureF,DewpointF,PressureIn,WindDirection,WindDirectionDegrees,WindSpeedMPH,WindSpeedGustMPH,Humidity,HourlyPrecipIn,Conditions,Clouds,dailyrainin,SoftwareType,DateUTC
2013-12-02 00:01:00,38.4,37.7,29.90,WSW,250,0.0,0.0,97,0.00,,---,0.00,VWS V14.01,2013-12-02 05:01:00,
2013-12-02 00:02:00,38.4,37.7,29.90,WSW,250,0.0,0.0,97,0.00,,---,0.00,VWS V14.01,2013-12-02 05:02:00,
2013-12-02 00:03:00,38.3,37.6,29.90,WSW,250,0.0,0.0,97,0.00,,---,0.00,VWS V14.01,2013-12-02 05:03:00,
2013-12-02 00:06:00,38.3,37.6,29.90,WSW,250,0.0,0.0,97,0.00,,---,0.00,VWS V14.01,2013-12-02 05:06:00,
2013-12-02 00:10:00,38.2,37.5,29.90,WSW,250,0.0,0.0,97,0.00,,---,0.00,VWS V14.01,2013-12-02 05:10:00,
2013-12-02 00:13:00,38.1,37.5,29.90,WSW,250,0.0,0.0,98,0.00,,---,0.00,VWS V14.01,2013-12-02 05:13:00,
2013-12-02 00:18:00,38.1,37.5,29.90,WSW,250,0.0,0.0,98,0.00,,---,0.00,VWS V14.01,2013-12-02 05:18:00,
2013-12-02 00:23:00,38.0,37.4,29.90,WSW,250,0.0,0.0,98,0.00,,---,0.00,VWS V14.01,2013-12-02 05:23:00,
2013-12-02 00:28:00,38.0,37.5,29.89,WSW,250,0.0,0.0,98,0.00,,---,0.00,VWS V14.01,2013-12-02 05:28:00,
2013-12-02 00:33:00,37.9,37.4,29.89,WSW,250,0.0,0.0,98,0.00,,---,0.00,VWS V14.01,2013-12-02 05:33:00,
2013-12-02 00:38:00,38.0,37.5,29.89,WSW,250,0.0,0.0,98,0.00,,---,0.00,VWS V14.01,2013-12-02 05:38:00,
2013-12-02 00:43:00,38.0,37.5,29.89,WSW,250,0.0,0.0,98,0.00,,---,0.00,VWS V14.01,2013-12-02 05:43:00,
2013-12-02 00:48:00,38.1,37.6,29.88,WSW,250,0.0,0.0,98,0.00,,---,0.00,VWS V14.01,2013-12-02 05:48:00,
2013-12-02 00:53:00,38.2,37.6,29.88,WSW,250,0.0,0.0,98,0.00,,---,0.00,VWS V14.01,2013-12-02 05:53:00,
2013-12-02 00:58:00,38.2,37.7,29.88,WSW,250,0.0,0.0,98,0.00,,---,0.00,VWS V14.01,2013-12-02 05:58:00,
2013-12-02 01:03:00,38.3,37.8,29.88,WSW,250,0.0,0.0,98,0.00,,---,0.00,VWS V14.01,2013-12-02 06:03:00,
2013-12-02 01:08:00,38.4,37.8,29.88,WSW,250,0.0,0.0,98,0.00,,---,0.00,VWS V14.01,2013-12-02 06:08:00,
2013-12-02 01:13:00,38.5,37.9,29.88,WSW,250,0.0,0.0,98,0.00,,---,0.00,VWS V14.01,2013-12-02 06:13:00,
2013-12-02 01:18:00,38.5,37.9,29.88,WSW,250,0.0,0.0,98,0.00,,---,0.00,VWS V14.01,2013-12-02 06:18:00,
2013-12-02 01:23:00,38.5,37.9,29.87,WSW,250,0.0,0.0,98,0.00,,---,0.00,VWS V14.01,2013-12-02 06:23:00,
2013-12-02 01:28:00,38.6,38.0,29.87,WSW,250,0.0,0.0,98,0.00,,---,0.00,VWS V14.01,2013-12-02 06:28:00,
2013-12-02 01:34:00,38.6,37.9,29.87,WSW,250,0.0,0.0,97,0.00,,---,0.00,VWS V14.01,2013-12-02 06:34:00,
2013-12-02 01:39:00,38.7,38.0,29.87,WSW,250,0.0,0.0,97,0.00,,---,0.00,VWS V14.01,2013-12-02 06:39:00,
2013-12-02 01:44:00,38.7,38.0,29.87,WSW,250,0.0,0.0,97,0.00,,---,0.00,VWS V14.01,2013-12-02 06:44:00,
2013-12-02 01:49:00,38.7,38.0,29.87,West,264,0.0,0.0,97,0.00,,---,0.00,VWS V14.01,2013-12-02 06:49:00,
2013-12-02 01:54:00,38.7,38.0,29.87,West,264,0.0,0.0,97,0.00,,---,0.00,VWS V14.01,2013-12-02 06:54:00,
2013-12-02 01:59:00,38.7,38.0,29.87,West,264,0.0,0.0,97,0.00,,---,0.00,VWS V14.01,2013-12-02 06:59:00,
2013-12-02 02:04:00,38.6,37.9,29.87,West,264,0.0,0.0,97,0.00,,---,0.00,VWS V14.01,2013-12-02 07:04:00,
2013-12-02 02:09:00,38.5,37.8,29.87,West,264,0.0,0.0,97,0.00,,---,0.00,VWS V14.01,2013-12-02 07:09:00,
2013-12-02 02:14:00,38.5,37.8,29.87,West,264,0.0,0.0,97,0.00,,---,0.00,VWS V14.01,2013-12-02 07:14:00,
2013-12-02 02:19:00,38.5,37.8,29.87,West,264,0.0,0.0,97,0.00,,---,0.00,VWS V14.01,2013-12-02 07:19:00,
2013-12-02 02:24:00,38.7,38.0,29.86,West,264,0.0,0.0,97,0.00,,---,0.00,VWS V14.01,2013-12-02 07:24:00,
2013-12-02 02:29:00,38.8,38.0,29.86,West,264,0.0,0.0,97,0.00,,---,0.00,VWS V14.01,2013-12-02 07:29:00,
2013-12-02 02:34:00,38.9,38.0,29.86,West,264,0.0,0.0,97,0.00,,---,0.00,VWS V14.01,2013-12-02 07:34:00,
2013-12-02 02:39:00,38.9,38.0,29.86,West,264,0.0,0.0,96,0.00,,---,0.00,VWS V14.01,2013-12-02 07:39:00,
2013-12-02 02:44:00,38.9,37.9,29.85,West,264,0.0,0.0,96,0.00,,---,0.00,VWS V14.01,2013-12-02 07:44:00,
2013-12-02 02:49:00,39.1,38.2,29.85,West,264,0.0,0.0,97,0.00,,---,0.00,VWS V14.01,2013-12-02 07:49:00,
2013-12-02 02:54:00,39.3,38.6,29.85,West,264,0.0,0.0,97,0.00,,---,0.00,VWS V14.01,2013-12-02 07:54:00,
2013-12-02 02:59:00,39.4,38.8,29.85,West,264,0.0,0.0,98,0.00,,---,0.00,VWS V14.01,2013-12-02 07:59:00,
2013-12-02 03:04:00,39.5,38.9,29.85,West,264,0.0,0.0,98,0.00,,---,0.00,VWS V14.01,2013-12-02 08:04:00,
2013-12-02 03:09:00,39.5,38.9,29.85,West,264,0.0,0.0,98,0.00,,---,0.00,VWS V14.01,2013-12-02 08:09:00,
2013-12-02 03:14:00,39.6,39.1,29.84,West,264,0.0,0.0,98,0.00,,---,0.00,VWS V14.01,2013-12-02 08:14:00,
2013-12-02 03:19:00,39.6,39.1,29.84,West,264,0.0,0.0,98,0.00,,---,0.00,VWS V14.01,2013-12-02 08:19:00,
2013-12-02 03:24:00,39.7,39.2,29.84,West,264,0.0,0.0,98,0.00,,---,0.00,VWS V14.01,2013-12-02 08:24:00,
2013-12-02 03:29:00,39.7,39.1,29.84,West,264,0.0,0.0,98,0.00,,---,0.00,VWS V14.01,2013-12-02 08:29:00,
2013-12-02 03:34:00,39.7,39.0,29.84,West,264,0.0,0.0,97,0.00,,---,0.00,VWS V14.01,2013-12-02 08:34:00,
2013-12-02 03:39:00,39.7,39.0,29.84,West,264,0.0,0.0,97,0.00,,---,0.00,VWS V14.01,2013-12-02 08:39:00,
2013-12-02 03:44:00,39.7,38.9,29.84,West,264,0.0,0.0,97,0.00,,---,0.00,VWS V14.01,2013-12-02 08:44:00,
2013-12-02 03:49:00,39.7,38.9,29.84,West,264,0.0,0.0,97,0.00,,---,0.00,VWS V14.01,2013-12-02 08:49:00,
2013-12-02 03:54:00,39.6,38.6,29.84,West,264,0.0,0.0,96,0.00,,---,0.00,VWS V14.01,2013-12-02 08:54:00,
2013-12-02 03:59:00,39.5,38.4,29.84,West,264,0.0,0.0,96,0.00,,---,0.00,VWS V14.01,2013-12-02 08:59:00,
2013-12-02 04:04:00,39.5,38.3,29.83,West,264,0.0,0.0,95,0.00,,---,0.00,VWS V14.01,2013-12-02 09:04:00,
2013-12-02 04:09:00,39.4,38.1,29.83,West,264,0.0,0.0,95,0.00,,---,0.00,VWS V14.01,2013-12-02 09:09:00,
2013-12-02 04:14:00,39.4,38.0,29.83,West,264,0.0,0.0,95,0.00,,---,0.00,VWS V14.01,2013-12-02 09:14:00,
2013-12-02 04:19:00,39.3,38.1,29.82,West,264,0.0,0.0,95,0.00,,---,0.00,VWS V14.01,2013-12-02 09:19:00,
2013-12-02 04:24:00,39.5,38.5,29.83,West,264,0.0,0.0,96,0.00,,---,0.00,VWS V14.01,2013-12-02 09:24:00,
2013-12-02 04:29:00,39.7,38.7,29.83,West,264,0.0,0.0,96,0.00,,---,0.00,VWS V14.01,2013-12-02 09:29:00,
2013-12-02 04:35:00,39.7,38.7,29.83,West,264,0.0,0.0,96,0.00,,---,0.00,VWS V14.01,2013-12-02 09:35:00,
2013-12-02 04:40:00,39.8,38.8,29.82,West,264,0.0,0.0,96,0.00,,---,0.00,VWS V14.01,2013-12-02 09:40:00,
2013-12-02 04:45:00,39.9,38.9,29.82,West,264,0.0,0.0,96,0.00,,---,0.00,VWS V14.01,2013-12-02 09:45:00,
2013-12-02 04:50:00,39.6,38.7,29.82,East,101,0.0,3.5,96,0.00,,---,0.00,VWS V14.01,2013-12-02 09:50:00,
2013-12-02 04:55:00,39.5,38.6,29.82,East,101,0.0,0.0,97,0.00,,---,0.00,VWS V14.01,2013-12-02 09:55:00,
2013-12-02 05:00:00,39.5,38.6,29.82,East,101,0.0,0.0,97,0.00,,---,0.00,VWS V14.01,2013-12-02 10:00:00,
2013-12-02 05:05:00,39.5,38.6,29.83,East,101,0.0,0.0,97,0.00,,---,0.00,VWS V14.01,2013-12-02 10:05:00,
2013-12-02 05:10:00,39.4,38.5,29.82,East,101,0.0,0.0,96,0.00,,---,0.00,VWS V14.01,2013-12-02 10:10:00,
2013-12-02 05:15:00,39.2,38.3,29.83,West,260,5.1,5.9,96,0.00,,---,0.00,VWS V14.01,2013-12-02 10:15:00,
2013-12-02 05:20:00,38.9,38.0,29.83,WSW,240,0.0,3.5,97,0.00,,---,0.00,VWS V14.01,2013-12-02 10:20:00,
2013-12-02 05:25:00,38.7,37.9,29.83,WSW,240,0.0,0.0,97,0.00,,---,0.00,VWS V14.01,2013-12-02 10:25:00,
2013-12-02 05:30:00,38.4,37.7,29.83,WSW,240,0.0,0.0,97,0.00,,---,0.00,VWS V14.01,2013-12-02 10:30:00,
2013-12-02 05:35:00,38.2,37.5,29.82,WSW,240,0.0,0.0,97,0.00,,---,0.00,VWS V14.01,2013-12-02 10:35:00,
2013-12-02 05:40:00,38.2,37.6,29.83,WSW,240,0.0,0.0,98,0.00,,---,0.00,VWS V14.01,2013-12-02 10:40:00,
2013-12-02 05:45:00,38.1,37.5,29.82,WSW,240,0.0,0.0,98,0.00,,---,0.00,VWS V14.01,2013-12-02 10:45:00,
2013-12-02 05:50:00,38.0,37.4,29.82,WSW,240,0.0,0.0,98,0.00,,---,0.00,VWS V14.01,2013-12-02 10:50:00,
2013-12-02 05:55:00,38.1,37.6,29.82,West,262,0.0,5.5,98,0.00,,---,0.00,VWS V14.01,2013-12-02 10:55:00,
2013-12-02 06:00:00,38.1,37.6,29.82,West,262,0.0,0.0,98,0.00,,---,0.00,VWS V14.01,2013-12-02 11:00:00,
2013-12-02 06:06:00,38.3,37.8,29.82,West,262,0.0,0.0,98,0.00,,---,0.00,VWS V14.01,2013-12-02 11:06:00,
2013-12-02 06:11:00,38.5,38.1,29.81,West,262,0.0,0.0,98,0.00,,---,0.00,VWS V14.01,2013-12-02 11:11:00,
2013-12-02 06:16:00,38.7,38.4,29.81,West,262,0.0,0.0,99,0.00,,---,0.00,VWS V14.01,2013-12-02 11:16:00,
2013-12-02 06:21:00,38.9,38.6,29.82,West,262,0.0,0.0,99,0.00,,---,0.00,VWS V14.01,2013-12-02 11:21:00,
2013-12-02 06:26:00,39.0,38.8,29.81,West,262,0.0,0.0,99,0.00,,---,0.00,VWS V14.01,2013-12-02 11:26:00,
2013-12-02 06:32:00,39.0,38.8,29.82,West,262,0.0,0.0,99,0.00,,---,0.00,VWS V14.01,2013-12-02 11:32:00,
2013-12-02 06:37:00,39.0,38.8,29.82,West,259,4.2,4.3,99,0.00,,---,0.00,VWS V14.01,2013-12-02 11:37:00,
2013-12-02 06:42:00,38.9,38.8,29.82,West,270,0.0,0.0,100,0.00,,---,0.00,VWS V14.01,2013-12-02 11:42:00,
2013-12-02 06:47:00,38.8,38.7,29.82,West,270,0.0,0.0,99,0.00,,---,0.00,VWS V14.01,2013-12-02 11:47:00,
2013-12-02 06:53:00,38.8,38.6,29.82,West,270,0.0,0.0,99,0.00,,---,0.00,VWS V14.01,2013-12-02 11:53:00,
2013-12-02 06:58:00,38.9,38.7,29.82,West,270,0.0,0.0,99,0.00,,---,0.00,VWS V14.01,2013-12-02 11:58:00,
2013-12-02 07:03:00,38.9,38.7,29.82,West,270,3.4,4.5,99,0.00,,---,0.00,VWS V14.01,2013-12-02 12:03:00,
2013-12-02 07:08:00,38.9,38.7,29.82,WSW,252,0.0,0.0,99,0.00,,---,0.00,VWS V14.01,2013-12-02 12:08:00,
2013-12-02 07:13:00,38.9,38.7,29.82,WSW,252,0.0,0.0,99,0.00,,---,0.00,VWS V14.01,2013-12-02 12:13:00,
2013-12-02 07:19:00,38.8,38.6,29.82,WSW,252,0.0,0.0,99,0.00,,---,0.00,VWS V14.01,2013-12-02 12:19:00,
2013-12-02 07:25:00,38.7,38.5,29.82,WSW,252,0.0,0.0,99,0.00,,---,0.00,VWS V14.01,2013-12-02 12:25:00,
2013-12-02 07:30:00,38.8,38.5,29.82,WSW,252,0.0,0.0,99,0.00,,---,0.00,VWS V14.01,2013-12-02 12:30:00,
2013-12-02 07:36:00,38.7,38.4,29.82,WSW,252,0.0,0.0,99,0.00,,---,0.00,VWS V14.01,2013-12-02 12:36:00,
2013-12-02 07:44:00,38.8,38.5,29.82,WSW,252,0.0,0.0,99,0.00,,---,0.00,VWS V14.01,2013-12-02 12:44:00,
2013-12-02 07:49:00,38.9,38.6,29.82,WSW,252,0.0,0.0,99,0.00,,---,0.00,VWS V14.01,2013-12-02 12:49:00,
2013-12-02 07:54:00,39.0,38.7,29.82,WSW,252,0.0,0.0,99,0.00,,---,0.00,VWS V14.01,2013-12-02 12:54:00,
2013-12-02 08:00:00,39.2,38.9,29.82,WSW,252,0.0,0.0,99,0.00,,---,0.00,VWS V14.01,2013-12-02 13:00:00,
2013-12-02 08:06:00,39.3,39.0,29.82,WSW,252,0.0,0.0,99,0.00,,---,0.00,VWS V14.01,2013-12-02 13:06:00,
2013-12-02 08:12:00,39.5,39.2,29.82,WSW,252,0.0,0.0,99,0.00,,---,0.00,VWS V14.01,2013-12-02 13:12:00,
2013-12-02 08:17:00,39.6,39.3,29.82,WSW,252,0.0,0.0,99,0.00,,---,0.00,VWS V14.01,2013-12-02 13:17:00,
2013-12-02 08:22:00,39.7,39.4,29.82,WSW,252,0.0,0.0,99,0.00,,---,0.00,VWS V14.01,2013-12-02 13:22:00,
2013-12-02 08:27:00,39.8,39.5,29.82,WSW,252,0.0,0.0,99,0.00,,---,0.00,VWS V14.01,2013-12-02 13:27:00,
2013-12-02 08:33:00,39.9,39.6,29.82,WSW,252,0.0,0.0,99,0.00,,---,0.00,VWS V14.01,2013-12-02 13:33:00,
2013-12-02 08:38:00,40.0,39.7,29.82,WSW,252,0.0,0.0,99,0.00,,---,0.00,VWS V14.01,2013-12-02 13:38:00,
2013-12-02 08:43:00,40.1,39.8,29.82,WSW,252,0.0,0.0,99,0.00,,---,0.00,VWS V14.01,2013-12-02 13:43:00,
2013-12-02 08:48:00,40.1,39.7,29.82,WSW,252,0.0,0.0,99,0.00,,---,0.00,VWS V14.01,2013-12-02 13:48:00,
2013-12-02 08:53:00,40.2,39.9,29.81,WSW,252,0.0,0.0,99,0.00,,---,0.00,VWS V14.01,2013-12-02 13:53:00,
2013-12-02 08:59:00,40.3,40.0,29.81,WSW,252,0.0,0.0,99,0.00,,---,0.00,VWS V14.01,2013-12-02 13:59:00,
2013-12-02 09:04:00,40.5,40.2,29.81,WSW,252,0.0,0.0,99,0.00,,---,0.00,VWS V14.01,2013-12-02 14:04:00,
2013-12-02 09:09:00,40.5,40.2,29.81,West,269,0.0,3.5,99,0.00,,---,0.00,VWS V14.01,2013-12-02 14:09:00,
2013-12-02 09:14:00,40.6,40.2,29.81,West,269,0.0,0.0,99,0.00,,---,0.00,VWS V14.01,2013-12-02 14:14:00,
2013-12-02 09:19:00,40.8,40.4,29.81,West,267,0.0,0.0,98,0.00,,---,0.00,VWS V14.01,2013-12-02 14:19:00,
2013-12-02 09:24:00,40.9,40.5,29.81,West,267,0.0,0.0,98,0.00,,---,0.00,VWS V14.01,2013-12-02 14:24:00,
2013-12-02 09:29:00,41.0,40.5,29.81,West,267,0.0,0.0,98,0.00,,---,0.00,VWS V14.01,2013-12-02 14:29:00,
2013-12-02 09:34:00,41.2,40.7,29.81,West,267,0.0,0.0,98,0.00,,---,0.00,VWS V14.01,2013-12-02 14:34:00,
2013-12-02 09:39:00,41.2,40.7,29.81,West,267,0.0,0.0,98,0.00,,---,0.00,VWS V14.01,2013-12-02 14:39:00,
2013-12-02 09:44:00,41.4,40.8,29.81,West,267,0.0,0.0,98,0.00,,---,0.00,VWS V14.01,2013-12-02 14:44:00,
2013-12-02 09:49:00,41.6,41.0,29.81,West,267,0.0,0.0,98,0.00,,---,0.00,VWS V14.01,2013-12-02 14:49:00,
2013-12-02 09:54:00,41.6,41.0,29.81,West,267,0.0,0.0,98,0.00,,---,0.00,VWS V14.01,2013-12-02 14:54:00,
2013-12-02 09:59:00,41.7,41.0,29.81,West,267,0.0,0.0,97,0.00,,---,0.00,VWS V14.01,2013-12-02 14:59:00,
2013-12-02 10:04:00,41.8,41.1,29.81,West,267,0.0,0.0,97,0.00,,---,0.00,VWS V14.01,2013-12-02 15:04:00,
2013-12-02 10:09:00,41.9,41.1,29.81,West,267,0.0,0.0,97,0.00,,---,0.00,VWS V14.01,2013-12-02 15:09:00,
2013-12-02 10:14:00,42.0,41.2,29.81,West,267,0.0,0.0,97,0.00,,---,0.00,VWS V14.01,2013-12-02 15:14:00,
2013-12-02 10:19:00,42.2,41.4,29.81,West,267,0.0,0.0,97,0.00,,---,0.00,VWS V14.01,2013-12-02 15:19:00,
2013-12-02 10:24:00,42.4,41.6,29.81,West,267,0.0,0.0,97,0.00,,---,0.00,VWS V14.01,2013-12-02 15:24:00,
2013-12-02 10:29:00,42.5,41.7,29.81,West,267,0.0,0.0,97,0.00,,---,0.00,VWS V14.01,2013-12-02 15:29:00,
2013-12-02 10:34:00,42.7,41.9,29.81,West,267,0.0,0.0,97,0.00,,---,0.00,VWS V14.01,2013-12-02 15:34:00,
2013-12-02 10:39:00,42.8,41.9,29.81,West,267,0.0,0.0,97,0.00,,---,0.00,VWS V14.01,2013-12-02 15:39:00,
2013-12-02 10:44:00,42.9,42.0,29.81,West,267,0.0,0.0,97,0.00,,---,0.00,VWS V14.01,2013-12-02 15:44:00,
2013-12-02 10:50:00,43.0,42.1,29.81,West,267,0.0,0.0,97,0.00,,---,0.00,VWS V14.01,2013-12-02 15:50:00,
2013-12-02 10:56:00,43.2,42.3,29.81,West,267,0.0,0.0,97,0.00,,---,0.00,VWS V14.01,2013-12-02 15:56:00,
2013-12-02 11:01:00,43.3,42.4,29.80,West,267,0.0,0.0,97,0.00,,---,0.00,VWS V14.01,2013-12-02 16:01:00,
2013-12-02 11:06:00,43.4,42.5,29.80,West,267,0.0,0.0,97,0.00,,---,0.00,VWS V14.01,2013-12-02 16:06:00,
2013-12-02 11:11:00,43.5,42.7,29.80,West,267,0.0,0.0,97,0.00,,---,0.00,VWS V14.01,2013-12-02 16:11:00,
2013-12-02 11:16:00,43.6,42.8,29.80,West,267,0.0,0.0,97,0.00,,---,0.00,VWS V14.01,2013-12-02 16:16:00,
2013-12-02 11:21:00,43.8,43.0,29.79,West,267,0.0,0.0,97,0.00,,---,0.00,VWS V14.01,2013-12-02 16:21:00,
2013-12-02 11:26:00,43.9,43.0,29.79,West,267,0.0,0.0,97,0.00,,---,0.00,VWS V14.01,2013-12-02 16:26:00,
2013-12-02 11:31:00,44.0,43.1,29.79,West,267,0.0,0.0,97,0.00,,---,0.00,VWS V14.01,2013-12-02 16:31:00,
2013-12-02 11:36:00,44.2,43.3,29.79,West,267,0.0,0.0,97,0.00,,---,0.00,VWS V14.01,2013-12-02 16:36:00,
2013-12-02 11:41:00,44.4,43.5,29.78,West,267,0.0,0.0,97,0.00,,---,0.00,VWS V14.01,2013-12-02 16:41:00,
2013-12-02 11:46:00,44.5,43.5,29.78,NW,321,5.9,8.5,96,0.00,,---,0.00,VWS V14.01,2013-12-02 16:46:00,
2013-12-02 11:51:00,44.6,43.7,29.77,WNW,288,3.0,7.1,96,0.00,,---,0.00,VWS V14.01,2013-12-02 16:51:00,
2013-12-02 11:56:00,44.7,43.8,29.77,WSW,252,0.0,0.0,96,0.00,,---,0.00,VWS V14.01,2013-12-02 16:56:00,
2013-12-02 12:01:00,44.8,43.8,29.77,West,271,4.9,6.0,96,0.00,,---,0.00,VWS V14.01,2013-12-02 17:01:00,
2013-12-02 12:06:00,44.9,43.9,29.76,West,277,5.8,6.5,96,0.00,,---,0.00,VWS V14.01,2013-12-02 17:06:00,
2013-12-02 12:11:00,45.1,44.1,29.76,West,276,5.7,5.7,96,0.00,,---,0.00,VWS V14.01,2013-12-02 17:11:00,
2013-12-02 12:16:00,45.3,44.3,29.76,NW,315,7.0,12.1,96,0.00,,---,0.00,VWS V14.01,2013-12-02 17:16:00,
2013-12-02 12:21:00,45.5,44.4,29.76,WSW,253,6.3,10.0,96,0.00,,---,0.00,VWS V14.01,2013-12-02 17:21:00,
2013-12-02 12:26:00,45.6,44.5,29.76,NW,314,9.1,9.8,96,0.00,,---,0.00,VWS V14.01,2013-12-02 17:26:00,
2013-12-02 12:31:00,45.7,44.6,29.76,WNW,283,7.0,9.1,96,0.00,,---,0.00,VWS V14.01,2013-12-02 17:31:00,
2013-12-02 12:36:00,45.8,44.8,29.75,West,262,4.2,12.7,96,0.00,,---,0.00,VWS V14.01,2013-12-02 17:36:00,
2013-12-02 12:41:00,46.1,45.0,29.75,West,259,5.3,10.4,96,0.00,,---,0.00,VWS V14.01,2013-12-02 17:41:00,
2013-12-02 12:46:00,46.3,45.1,29.75,West,260,5.8,9.7,96,0.00,,---,0.00,VWS V14.01,2013-12-02 17:46:00,
2013-12-02 12:51:00,46.6,45.3,29.75,West,269,6.0,7.6,95,0.00,,---,0.00,VWS V14.01,2013-12-02 17:51:00,
2013-12-02 12:56:00,46.6,45.3,29.74,WNW,284,7.6,7.8,95,0.00,,---,0.00,VWS V14.01,2013-12-02 17:56:00,
2013-12-02 13:01:00,46.6,45.2,29.74,West,278,6.8,8.0,95,0.00,,---,0.00,VWS V14.01,2013-12-02 18:01:00,
2013-12-02 13:06:00,46.8,45.5,29.74,West,262,6.6,11.4,95,0.00,,---,0.00,VWS V14.01,2013-12-02 18:06:00,
2013-12-02 13:11:00,47.1,45.7,29.74,WSW,249,3.2,11.5,95,0.00,,---,0.00,VWS V14.01,2013-12-02 18:11:00,
2013-12-02 13:16:00,47.2,45.7,29.74,West,259,7.7,10.9,95,0.00,,---,0.00,VWS V14.01,2013-12-02 18:16:00,
2013-12-02 13:21:00,47.3,45.8,29.74,West,260,4.5,7.4,94,0.00,,---,0.00,VWS V14.01,2013-12-02 18:21:00,
2013-12-02 13:26:00,47.3,45.8,29.74,WSW,238,0.0,5.2,94,0.00,,---,0.00,VWS V14.01,2013-12-02 18:26:00,
2013-12-02 13:31:00,47.2,45.7,29.74,West,270,3.1,9.9,94,0.00,,---,0.00,VWS V14.01,2013-12-02 18:31:00,
2013-12-02 13:36:00,47.3,45.8,29.74,WSW,253,0.0,4.3,94,0.00,,---,0.00,VWS V14.01,2013-12-02 18:36:00,
2013-12-02 13:41:00,47.2,45.7,29.74,WNW,284,11.9,12.8,94,0.00,,---,0.00,VWS V14.01,2013-12-02 18:41:00,
2013-12-02 13:46:00,47.3,45.8,29.74,West,276,8.9,11.2,94,0.00,,---,0.00,VWS V14.01,2013-12-02 18:46:00,
2013-12-02 13:51:00,47.1,45.6,29.74,West,271,2.8,4.3,94,0.00,,---,0.00,VWS V14.01,2013-12-02 18:51:00,
2013-12-02 13:58:00,47.1,45.6,29.73,WSW,245,8.4,9.5,94,0.00,,---,0.00,VWS V14.01,2013-12-02 18:58:00,
2013-12-02 14:03:00,47.1,45.6,29.73,WNW,291,5.2,7.0,94,0.00,,---,0.00,VWS V14.01,2013-12-02 19:03:00,
2013-12-02 14:08:00,47.4,45.9,29.72,NW,311,0.0,4.2,94,0.00,,---,0.00,VWS V14.01,2013-12-02 19:08:00,
2013-12-02 14:13:00,47.4,45.8,29.72,NW,311,0.0,0.0,94,0.00,,---,0.00,VWS V14.01,2013-12-02 19:13:00,
2013-12-02 14:18:00,47.7,46.0,29.72,NW,311,0.0,0.0,94,0.00,,---,0.00,VWS V14.01,2013-12-02 19:18:00,
2013-12-02 14:23:00,47.8,46.0,29.72,NNW,342,0.0,5.6,94,0.00,,---,0.00,VWS V14.01,2013-12-02 19:23:00,
2013-12-02 14:28:00,47.9,46.1,29.72,West,280,4.6,8.3,93,0.00,,---,0.00,VWS V14.01,2013-12-02 19:28:00,
2013-12-02 14:33:00,47.9,46.0,29.72,West,266,6.3,7.4,93,0.00,,---,0.00,VWS V14.01,2013-12-02 19:33:00,
2013-12-02 14:38:00,47.7,45.8,29.72,SW,228,4.5,6.0,93,0.00,,---,0.00,VWS V14.01,2013-12-02 19:38:00,
2013-12-02 14:43:00,47.7,45.8,29.72,WNW,300,6.7,8.7,93,0.00,,---,0.00,VWS V14.01,2013-12-02 19:43:00,
2013-12-02 14:48:00,47.6,45.8,29.72,WSW,252,0.0,0.0,93,0.00,,---,0.00,VWS V14.01,2013-12-02 19:48:00,
2013-12-02 14:53:00,47.5,45.7,29.72,West,281,4.2,6.3,93,0.00,,---,0.00,VWS V14.01,2013-12-02 19:53:00,
2013-12-02 14:58:00,47.5,45.7,29.72,West,270,5.4,9.1,94,0.00,,---,0.00,VWS V14.01,2013-12-02 19:58:00,
2013-12-02 15:03:00,47.4,45.7,29.72,SW,226,3.5,6.3,94,0.00,,---,0.00,VWS V14.01,2013-12-02 20:03:00,
2013-12-02 15:08:00,47.3,45.6,29.72,WSW,252,0.0,0.0,94,0.00,,---,0.00,VWS V14.01,2013-12-02 20:08:00,
2013-12-02 15:13:00,47.2,45.5,29.72,WSW,255,2.1,7.9,94,0.00,,---,0.00,VWS V14.01,2013-12-02 20:13:00,
2013-12-02 15:18:00,47.0,45.4,29.72,West,263,0.0,5.3,94,0.00,,---,0.00,VWS V14.01,2013-12-02 20:18:00,
2013-12-02 15:23:00,47.0,45.4,29.72,West,266,0.0,8.7,94,0.00,,---,0.00,VWS V14.01,2013-12-02 20:23:00,
2013-12-02 15:28:00,46.8,45.2,29.72,West,276,4.3,6.4,94,0.00,,---,0.00,VWS V14.01,2013-12-02 20:28:00,
2013-12-02 15:33:00,46.8,45.3,29.72,WNW,301,5.9,8.1,95,0.00,,---,0.00,VWS V14.01,2013-12-02 20:33:00,
2013-12-02 15:38:00,46.7,45.3,29.72,WNW,290,0.0,0.0,95,0.00,,---,0.00,VWS V14.01,2013-12-02 20:38:00,
2013-12-02 15:43:00,46.6,45.2,29.72,West,276,5.2,5.2,95,0.00,,---,0.00,VWS V14.01,2013-12-02 20:43:00,
2013-12-02 15:48:00,46.7,45.4,29.72,West,266,0.0,0.0,95,0.00,,---,0.00,VWS V14.01,2013-12-02 20:48:00,
2013-12-02 15:53:00,46.7,45.4,29.72,West,266,0.0,0.0,95,0.00,,---,0.00,VWS V14.01,2013-12-02 20:53:00,
2013-12-02 15:58:00,46.6,45.2,29.72,West,266,0.0,1.6,95,0.00,,---,0.00,VWS V14.01,2013-12-02 20:58:00,
2013-12-02 16:03:00,46.0,44.3,29.72,West,266,0.0,0.0,94,0.00,,---,0.00,VWS V14.01,2013-12-02 21:03:00,
2013-12-02 16:08:00,45.6,44.0,29.72,West,266,0.0,0.0,94,0.00,,---,0.00,VWS V14.01,2013-12-02 21:08:00,
2013-12-02 16:13:00,45.0,43.5,29.72,West,266,0.0,0.0,94,0.00,,---,0.00,VWS V14.01,2013-12-02 21:13:00,
2013-12-02 16:18:00,44.7,43.3,29.72,West,266,0.0,0.0,95,0.00,,---,0.00,VWS V14.01,2013-12-02 21:18:00,
2013-12-02 16:23:00,44.5,43.1,29.73,West,266,0.0,0.0,95,0.00,,---,0.00,VWS V14.01,2013-12-02 21:23:00,
2013-12-02 16:28:00,44.4,43.1,29.72,West,266,0.0,0.0,95,0.00,,---,0.00,VWS V14.01,2013-12-02 21:28:00,
2013-12-02 16:33:00,44.4,43.1,29.72,West,266,0.0,0.0,95,0.00,,---,0.00,VWS V14.01,2013-12-02 21:33:00,
2013-12-02 16:38:00,44.2,42.9,29.72,West,266,0.0,0.0,95,0.00,,---,0.00,VWS V14.01,2013-12-02 21:38:00,
2013-12-02 16:43:00,44.1,42.9,29.72,West,266,0.0,0.0,96,0.00,,---,0.00,VWS V14.01,2013-12-02 21:43:00,
2013-12-02 16:48:00,43.9,42.7,29.72,West,266,0.0,0.0,96,0.00,,---,0.00,VWS V14.01,2013-12-02 21:48:00,
2013-12-02 16:53:00,43.7,42.6,29.72,West,266,0.0,0.0,96,0.00,,---,0.00,VWS V14.01,2013-12-02 21:53:00,
2013-12-02 16:58:00,43.6,42.5,29.72,West,266,0.0,0.0,96,0.00,,---,0.00,VWS V14.01,2013-12-02 21:58:00,
2013-12-02 17:03:00,43.5,42.4,29.72,West,266,0.0,0.0,96,0.00,,---,0.00,VWS V14.01,2013-12-02 22:03:00,
2013-12-02 17:09:00,43.5,42.5,29.72,West,266,0.0,0.0,96,0.00,,---,0.00,VWS V14.01,2013-12-02 22:09:00,
2013-12-02 17:14:00,43.5,42.5,29.72,West,266,0.0,0.0,96,0.00,,---,0.00,VWS V14.01,2013-12-02 22:14:00,
2013-12-02 17:20:00,43.6,42.6,29.72,West,266,0.0,0.0,96,0.00,,---,0.00,VWS V14.01,2013-12-02 22:20:00,
2013-12-02 17:25:00,43.7,42.7,29.73,West,266,0.0,0.0,96,0.00,,---,0.00,VWS V14.01,2013-12-02 22:25:00,
2013-12-02 17:30:00,43.7,42.7,29.73,West,266,0.0,0.0,96,0.00,,---,0.00,VWS V14.01,2013-12-02 22:30:00,
2013-12-02 17:35:00,43.8,42.8,29.73,West,266,0.0,0.0,96,0.00,,---,0.00,VWS V14.01,2013-12-02 22:35:00,
2013-12-02 17:40:00,43.9,42.9,29.72,West,266,0.0,0.0,96,0.00,,---,0.00,VWS V14.01,2013-12-02 22:40:00,
2013-12-02 17:45:00,44.0,43.1,29.72,West,266,0.0,0.0,97,0.00,,---,0.00,VWS V14.01,2013-12-02 22:45:00,
2013-12-02 17:50:00,44.0,43.2,29.72,West,266,0.0,0.0,97,0.00,,---,0.00,VWS V14.01,2013-12-02 22:50:00,
2013-12-02 17:55:00,44.0,43.2,29.72,West,266,0.0,0.0,97,0.00,,---,0.00,VWS V14.01,2013-12-02 22:55:00,
2013-12-02 18:00:00,44.0,43.3,29.73,West,266,0.0,0.0,97,0.00,,---,0.00,VWS V14.01,2013-12-02 23:00:00,
2013-12-02 18:05:00,43.9,43.2,29.72,West,266,0.0,0.0,97,0.00,,---,0.00,VWS V14.01,2013-12-02 23:05:00,
2013-12-02 18:10:00,43.9,43.3,29.72,West,266,0.0,0.0,98,0.00,,---,0.00,VWS V14.01,2013-12-02 23:10:00,
2013-12-02 18:15:00,43.8,43.2,29.73,West,266,0.0,0.0,98,0.00,,---,0.00,VWS V14.01,2013-12-02 23:15:00,
2013-12-02 18:20:00,43.7,43.2,29.73,West,266,0.0,0.0,98,0.00,,---,0.00,VWS V14.01,2013-12-02 23:20:00,
2013-12-02 18:25:00,43.6,43.1,29.74,West,266,0.0,0.0,98,0.00,,---,0.00,VWS V14.01,2013-12-02 23:25:00,
2013-12-02 18:30:00,43.6,43.1,29.74,West,266,0.0,0.0,98,0.00,,---,0.00,VWS V14.01,2013-12-02 23:30:00,
2013-12-02 18:35:00,43.6,43.2,29.74,West,266,0.0,0.0,99,0.00,,---,0.00,VWS V14.01,2013-12-02 23:35:00,
2013-12-02 18:40:00,43.7,43.4,29.74,West,266,0.0,0.0,99,0.00,,---,0.00,VWS V14.01,2013-12-02 23:40:00,
2013-12-02 18:45:00,43.7,43.5,29.74,West,266,0.0,0.0,99,0.00,,---,0.00,VWS V14.01,2013-12-02 23:45:00,
2013-12-02 18:50:00,43.7,43.5,29.74,West,266,0.0,0.0,99,0.00,,---,0.00,VWS V14.01,2013-12-02 23:50:00,
2013-12-02 18:55:00,43.7,43.5,29.74,West,266,0.0,0.0,99,0.00,,---,0.00,VWS V14.01,2013-12-02 23:55:00,
2013-12-02 19:00:00,43.7,43.6,29.74,West,266,0.0,0.0,100,0.00,,---,0.00,VWS V14.01,2013-12-03 00:00:00,
2013-12-02 19:06:00,43.8,43.7,29.74,West,266,0.0,0.0,100,0.00,,---,0.00,VWS V14.01,2013-12-03 00:06:00,
2013-12-02 19:11:00,43.8,43.8,29.74,West,266,0.0,0.0,100,0.00,,---,0.00,VWS V14.01,2013-12-03 00:11:00,
2013-12-02 19:16:00,43.8,43.8,29.74,West,266,0.0,0.0,100,0.00,,---,0.00,VWS V14.01,2013-12-03 00:16:00,
2013-12-02 19:21:00,43.8,43.8,29.74,West,266,0.0,0.0,100,0.00,,---,0.00,VWS V14.01,2013-12-03 00:21:00,
2013-12-02 19:27:00,43.8,43.8,29.74,West,266,0.0,0.0,100,0.00,,---,0.00,VWS V14.01,2013-12-03 00:27:00,
2013-12-02 19:33:00,43.8,43.8,29.74,West,266,0.0,0.0,100,0.00,,---,0.00,VWS V14.01,2013-12-03 00:33:00,
2013-12-02 19:39:00,43.8,43.8,29.74,West,266,0.0,0.0,100,0.00,,---,0.00,VWS V14.01,2013-12-03 00:39:00,
2013-12-02 19:44:00,43.9,43.9,29.74,West,266,0.0,0.0,100,0.00,,---,0.00,VWS V14.01,2013-12-03 00:44:00,
2013-12-02 19:49:00,43.9,43.9,29.75,West,266,0.0,0.0,100,0.00,,---,0.00,VWS V14.01,2013-12-03 00:49:00,
2013-12-02 19:55:00,43.8,43.8,29.75,West,266,0.0,0.0,100,0.00,,---,0.00,VWS V14.01,2013-12-03 00:55:00,
2013-12-02 20:01:00,43.8,43.8,29.74,West,266,0.0,0.0,100,0.00,,---,0.00,VWS V14.01,2013-12-03 01:01:00,
2013-12-02 20:06:00,43.8,43.8,29.74,West,266,0.0,0.0,100,0.00,,---,0.00,VWS V14.01,2013-12-03 01:06:00,
2013-12-02 20:11:00,43.8,43.8,29.74,West,266,0.0,0.0,100,0.00,,---,0.00,VWS V14.01,2013-12-03 01:11:00,
2013-12-02 20:16:00,43.8,43.8,29.74,West,266,0.0,0.0,100,0.00,,---,0.00,VWS V14.01,2013-12-03 01:16:00,
2013-12-02 20:22:00,43.8,43.8,29.74,West,266,0.0,0.0,100,0.00,,---,0.00,VWS V14.01,2013-12-03 01:22:00,
2013-12-02 20:27:00,43.8,43.8,29.75,West,266,0.0,0.0,100,0.00,,---,0.00,VWS V14.01,2013-12-03 01:27:00,
2013-12-02 20:32:00,43.8,43.8,29.75,West,266,0.0,0.0,100,0.00,,---,0.00,VWS V14.01,2013-12-03 01:32:00,
2013-12-02 20:37:00,43.8,43.8,29.75,West,266,0.0,0.0,100,0.00,,---,0.00,VWS V14.01,2013-12-03 01:37:00,
2013-12-02 20:42:00,43.7,43.7,29.75,West,266,0.0,0.0,100,0.00,,---,0.00,VWS V14.01,2013-12-03 01:42:00,
2013-12-02 20:48:00,43.7,43.7,29.75,West,266,0.0,0.0,100,0.00,,---,0.00,VWS V14.01,2013-12-03 01:48:00,
2013-12-02 20:54:00,43.6,43.6,29.75,West,266,0.0,0.0,100,0.00,,---,0.00,VWS V14.01,2013-12-03 01:54:00,
2013-12-02 21:00:00,43.6,43.6,29.75,West,266,0.0,0.0,100,0.00,,---,0.00,VWS V14.01,2013-12-03 02:00:00,
2013-12-02 21:05:00,43.5,43.5,29.75,West,266,0.0,0.0,100,0.00,,---,0.00,VWS V14.01,2013-12-03 02:05:00,
2013-12-02 21:10:00,43.4,43.4,29.75,West,266,0.0,0.0,100,0.00,,---,0.00,VWS V14.01,2013-12-03 02:10:00,
2013-12-02 21:15:00,43.3,43.3,29.75,West,266,0.0,0.0,100,0.00,,---,0.00,VWS V14.01,2013-12-03 02:15:00,
2013-12-02 21:20:00,43.2,43.2,29.75,West,266,0.0,0.0,100,0.00,,---,0.00,VWS V14.01,2013-12-03 02:20:00,
2013-12-02 21:25:00,43.1,43.1,29.75,West,266,0.0,0.0,100,0.00,,---,0.00,VWS V14.01,2013-12-03 02:25:00,
2013-12-02 21:30:00,43.0,43.0,29.75,West,266,0.0,0.0,100,0.00,,---,0.00,VWS V14.01,2013-12-03 02:30:00,
2013-12-02 21:35:00,43.0,43.0,29.75,West,266,0.0,0.0,100,0.00,,---,0.00,VWS V14.01,2013-12-03 02:35:00,
2013-12-02 21:40:00,43.1,43.1,29.76,West,266,0.0,0.0,100,0.00,,---,0.00,VWS V14.01,2013-12-03 02:40:00,
2013-12-02 21:45:00,43.2,43.2,29.75,West,266,0.0,0.0,100,0.00,,---,0.00,VWS V14.01,2013-12-03 02:45:00,
2013-12-02 21:51:00,43.2,43.2,29.75,West,266,0.0,0.0,100,0.00,,---,0.00,VWS V14.01,2013-12-03 02:51:00,
2013-12-02 21:56:00,43.2,43.2,29.75,West,266,0.0,0.0,100,0.00,,---,0.00,VWS V14.01,2013-12-03 02:56:00,
2013-12-02 22:01:00,43.2,43.2,29.75,West,266,0.0,0.0,100,0.00,,---,0.00,VWS V14.01,2013-12-03 03:01:00,
2013-12-02 22:06:00,43.1,43.1,29.75,West,266,0.0,0.0,100,0.00,,---,0.00,VWS V14.01,2013-12-03 03:06:00,
2013-12-02 22:11:00,43.1,43.1,29.75,West,266,0.0,0.0,100,0.00,,---,0.00,VWS V14.01,2013-12-03 03:11:00,
2013-12-02 22:16:00,43.1,43.1,29.76,West,266,0.0,0.0,100,0.00,,---,0.00,VWS V14.01,2013-12-03 03:16:00,
2013-12-02 22:21:00,43.0,43.0,29.76,West,266,0.0,0.0,100,0.00,,---,0.00,VWS V14.01,2013-12-03 03:21:00,
2013-12-02 22:26:00,42.9,42.9,29.75,West,266,0.0,0.0,100,0.00,,---,0.00,VWS V14.01,2013-12-03 03:26:00,
2013-12-02 22:31:00,42.8,42.8,29.75,West,266,0.0,0.0,100,0.00,,---,0.00,VWS V14.01,2013-12-03 03:31:00,
2013-12-02 22:36:00,42.7,42.7,29.75,West,266,0.0,0.0,100,0.00,,---,0.00,VWS V14.01,2013-12-03 03:36:00,
2013-12-02 22:41:00,42.6,42.6,29.76,WNW,295,2.8,3.5,100,0.00,,---,0.00,VWS V14.01,2013-12-03 03:41:00,
2013-12-02 22:46:00,42.5,42.5,29.76,West,260,0.0,0.0,100,0.00,,---,0.00,VWS V14.01,2013-12-03 03:46:00,
2013-12-02 22:51:00,42.5,42.5,29.76,WNW,283,5.1,6.1,100,0.00,,---,0.00,VWS V14.01,2013-12-03 03:51:00,
2013-12-02 22:56:00,42.6,42.6,29.76,WNW,285,3.0,3.3,100,0.00,,---,0.00,VWS V14.01,2013-12-03 03:56:00,
2013-12-02 23:01:00,42.6,42.6,29.76,WSW,240,5.3,6.4,100,0.00,,---,0.00,VWS V14.01,2013-12-03 04:01:00,
2013-12-02 23:06:00,42.7,42.7,29.76,West,264,0.0,0.0,100,0.00,,---,0.00,VWS V14.01,2013-12-03 04:06:00,
2013-12-02 23:11:00,42.6,42.6,29.76,West,259,0.0,4.3,100,0.00,,---,0.00,VWS V14.01,2013-12-03 04:11:00,
2013-12-02 23:16:00,42.6,42.6,29.76,West,259,0.0,0.0,100,0.00,,---,0.00,VWS V14.01,2013-12-03 04:16:00,
2013-12-02 23:21:00,42.5,42.5,29.76,West,281,3.0,3.0,100,0.00,,---,0.00,VWS V14.01,2013-12-03 04:21:00,
2013-12-02 23:26:00,42.5,42.5,29.76,West,278,4.3,4.8,100,0.00,,---,0.00,VWS V14.01,2013-12-03 04:26:00,
2013-12-02 23:32:00,42.5,42.5,29.76,WSW,245,0.0,2.0,100,0.00,,---,0.00,VWS V14.01,2013-12-03 04:32:00,
2013-12-02 23:37:00,42.5,42.5,29.76,West,264,0.0,11.7,100,0.00,,---,99.99,VWS V14.01,2013-12-03 04:37:00,
2013-12-02 23:42:00,42.4,42.4,29.76,WSW,246,0.0,0.0,100,0.00,,---,0.00,VWS V14.01,2013-12-03 04:42:00,
2013-12-02 23:47:00,42.3,42.3,29.76,WSW,246,0.0,0.0,100,0.00,,---,0.00,VWS V14.01,2013-12-03 04:47:00,
2013-12-02 23:52:00,42.3,42.3,29.76,West,270,4.4,6.7,100,0.00,,---,0.00,VWS V14.01,2013-12-03 04:52:00,
2013-12-02 23:57:00,42.3,42.3,29.76,WNW,290,3.4,4.7,100,0.00,,---,0.00,VWS V14.01,2013-12-03 04:57:00,